Time;durP1;ratioP1;P1;durP2;ratioP2;P2;SDS_P1;SDS_P2;PMS_P1;PMS_P2;Temp;Humidity;BMP_temperature;BMP_pressure;BME280_temperature;BME280_humidity;BME280_pressure;Samples;Min_cycle;Max_cycle;Signal;HPM_P1;HPM_P2
2023/11/21 00:00:10;;;;;;;34.10;16.73;;;9.20;99.90;;;;;;5064788;28;20040;-67
2023/11/21 00:02:37;;;;;;;36.65;16.92;;;9.20;99.90;;;;;;5067301;28;20438;-67
2023/11/21 00:05:03;;;;;;;34.45;17.05;;;9.20;99.90;;;;;;5068026;28;20044;-67
2023/11/21 00:07:28;;;;;;;37.75;17.55;;;9.30;99.90;;;;;;5095667;28;20509;-67
2023/11/21 00:09:55;;;;;;;34.25;16.27;;;9.30;99.90;;;;;;5065267;28;20028;-67
2023/11/21 00:12:21;;;;;;;40.90;16.70;;;9.20;99.90;;;;;;5067193;28;20124;-67
2023/11/21 00:14:47;;;;;;;33.20;15.35;;;9.30;99.90;;;;;;5062600;28;20127;-67
2023/11/21 00:17:13;;;;;;;34.97;16.52;;;9.30;99.90;;;;;;5064634;28;20492;-67
2023/11/21 00:19:38;;;;;;;35.63;16.73;;;9.30;99.90;;;;;;5065234;28;20048;-67
2023/11/21 00:22:04;;;;;;;33.33;16.10;;;9.30;99.90;;;;;;5066273;28;20045;-67
2023/11/21 00:24:29;;;;;;;33.67;14.85;;;9.20;99.90;;;;;;5067264;28;20167;-67
2023/11/21 00:26:56;;;;;;;37.17;15.93;;;9.30;99.90;;;;;;5066550;28;20044;-67
2023/11/21 00:29:21;;;;;;;37.97;15.73;;;9.30;99.90;;;;;;5066441;28;20033;-67
2023/11/21 00:31:47;;;;;;;36.60;16.50;;;9.20;99.90;;;;;;5062817;28;20090;-67
2023/11/21 00:34:13;;;;;;;30.55;15.73;;;9.30;99.90;;;;;;5063888;28;20442;-67
2023/11/21 00:36:38;;;;;;;36.10;16.13;;;9.30;99.90;;;;;;5065735;28;20929;-67
2023/11/21 00:39:05;;;;;;;33.97;14.48;;;9.30;99.90;;;;;;5065639;28;20036;-67
2023/11/21 00:41:31;;;;;;;31.90;15.48;;;9.30;99.90;;;;;;5063173;28;20052;-67
2023/11/21 00:43:57;;;;;;;37.80;15.25;;;9.30;99.90;;;;;;5067802;28;20388;-67
2023/11/21 00:46:24;;;;;;;36.58;15.98;;;9.30;99.90;;;;;;5065838;28;20048;-67
2023/11/21 00:48:49;;;;;;;32.78;15.48;;;9.20;99.90;;;;;;5061450;28;20036;-67
2023/11/21 00:51:15;;;;;;;29.30;13.73;;;9.30;99.90;;;;;;5063923;28;20047;-67
2023/11/21 00:53:40;;;;;;;34.28;15.77;;;9.30;99.90;;;;;;5068841;28;20039;-67
2023/11/21 00:56:08;;;;;;;34.50;16.02;;;9.30;99.90;;;;;;5065089;28;20044;-67
2023/11/21 00:58:34;;;;;;;32.35;14.15;;;9.30;99.90;;;;;;5063667;28;20062;-67
2023/11/21 01:00:59;;;;;;;28.08;14.07;;;9.30;99.90;;;;;;5066884;28;20663;-67
2023/11/21 01:03:25;;;;;;;29.25;14.50;;;9.30;99.90;;;;;;5080809;28;20044;-67
2023/11/21 01:05:50;;;;;;;35.95;16.65;;;9.30;99.90;;;;;;5064202;28;20403;-67
2023/11/21 01:08:16;;;;;;;32.88;14.77;;;9.30;99.90;;;;;;5063222;28;20049;-67
2023/11/21 01:10:42;;;;;;;32.63;15.35;;;9.30;99.90;;;;;;5062465;28;20476;-67
2023/11/21 01:13:07;;;;;;;30.52;15.10;;;9.30;99.90;;;;;;5065398;28;20044;-67
2023/11/21 01:15:36;;;;;;;26.58;12.75;;;9.30;99.90;;;;;;5064178;28;20048;-67
2023/11/21 01:18:03;;;;;;;35.50;14.55;;;9.30;99.90;;;;;;5097502;28;20050;-67
2023/11/21 01:20:29;;;;;;;31.50;12.85;;;9.30;99.90;;;;;;5065092;28;20040;-67
2023/11/21 01:22:55;;;;;;;28.15;12.90;;;9.30;99.90;;;;;;5067973;28;20098;-67
2023/11/21 01:25:21;;;;;;;34.35;14.00;;;9.30;99.90;;;;;;5064789;28;20056;-67
2023/11/21 01:27:47;;;;;;;30.92;13.23;;;9.30;99.90;;;;;;5065299;28;20494;-67
2023/11/21 01:30:12;;;;;;;33.50;14.43;;;9.30;99.90;;;;;;5064120;28;20038;-67
2023/11/21 01:32:39;;;;;;;30.67;13.10;;;9.30;99.90;;;;;;5068244;28;20395;-67
2023/11/21 01:35:06;;;;;;;34.17;15.32;;;9.30;99.90;;;;;;5065185;28;20045;-67
2023/11/21 01:37:32;;;;;;;32.47;13.73;;;9.30;99.90;;;;;;5062518;28;20050;-66
2023/11/21 01:40:01;;;;;;;31.40;13.38;;;9.40;99.90;;;;;;5062746;28;20043;-67
2023/11/21 01:42:27;;;;;;;34.67;13.40;;;9.40;99.90;;;;;;5096099;28;20045;-67
2023/11/21 01:44:54;;;;;;;31.25;13.15;;;9.40;99.90;;;;;;5061116;28;20041;-67
2023/11/21 01:47:21;;;;;;;29.13;13.95;;;9.40;99.90;;;;;;5065716;28;20962;-67
2023/11/21 01:49:47;;;;;;;31.95;13.25;;;9.40;99.90;;;;;;5078620;28;20101;-67
2023/11/21 01:52:13;;;;;;;33.42;12.45;;;9.40;99.90;;;;;;5097221;28;20040;-67
2023/11/21 01:54:40;;;;;;;33.17;13.93;;;9.40;99.90;;;;;;5066142;28;20047;-67
2023/11/21 01:57:06;;;;;;;29.75;12.95;;;9.60;99.90;;;;;;5063097;28;20036;-67
2023/11/21 01:59:37;;;;;;;32.38;13.30;;;9.40;99.90;;;;;;5063631;28;20037;-67
2023/11/21 02:02:07;;;;;;;32.95;13.32;;;9.40;99.90;;;;;;5065284;28;20044;-67
2023/11/21 02:04:33;;;;;;;32.63;13.05;;;9.40;99.90;;;;;;5066203;28;20082;-67
2023/11/21 02:06:59;;;;;;;34.28;15.18;;;9.70;99.90;;;;;;5067264;28;20044;-67
2023/11/21 02:09:30;;;;;;;33.72;15.70;;;9.40;99.90;;;;;;5069843;28;20127;-67
2023/11/21 02:11:55;;;;;;;39.65;14.15;;;9.40;99.90;;;;;;5070010;28;20044;-67
2023/11/21 02:14:22;;;;;;;36.65;13.68;;;9.40;99.90;;;;;;5097034;28;20086;-67
2023/11/21 02:16:49;;;;;;;37.97;16.58;;;9.40;99.90;;;;;;5069348;28;20032;-67
2023/11/21 02:19:25;;;;;;;35.92;14.70;;;9.40;99.90;;;;;;5068596;28;20038;-67
2023/11/21 02:21:54;;;;;;;;;;;9.40;99.90;;;;;;5070462;28;20036;-67
2023/11/21 02:24:23;;;;;;;35.25;14.65;;;9.40;99.90;;;;;;5066816;28;19930;-67
2023/11/21 02:26:52;;;;;;;30.08;14.48;;;9.40;99.90;;;;;;5068410;28;20132;-67
2023/11/21 02:29:28;;;;;;;40.72;15.82;;;9.40;99.90;;;;;;5064905;28;20500;-67
2023/11/21 02:31:55;;;;;;;39.03;15.35;;;9.40;99.90;;;;;;5067914;28;20066;-67
2023/11/21 02:34:22;;;;;;;39.50;15.15;;;9.40;99.90;;;;;;5067925;28;20040;-67
2023/11/21 02:36:51;;;;;;;42.00;16.17;;;9.40;99.90;;;;;;5068428;28;20419;-67
2023/11/21 02:39:17;;;;;;;42.33;16.30;;;9.40;99.90;;;;;;5071569;28;20032;-67
2023/11/21 02:41:44;;;;;;;38.17;17.17;;;9.60;99.90;;;;;;5068370;28;20054;-67
2023/11/21 02:44:10;;;;;;;36.00;14.95;;;9.40;99.90;;;;;;5063836;28;20036;-67
2023/11/21 02:46:37;;;;;;;42.15;17.13;;;9.40;99.90;;;;;;5068265;28;20150;-67
2023/11/21 02:49:06;;;;;;;40.78;16.50;;;9.40;99.90;;;;;;5068103;28;20402;-67
2023/11/21 02:51:32;;;;;;;42.28;17.08;;;9.50;99.90;;;;;;5099473;27;20041;-67
2023/11/21 02:53:59;;;;;;;42.50;16.15;;;9.40;99.90;;;;;;5069210;28;20068;-67
2023/11/21 02:56:28;;;;;;;40.97;16.23;;;9.40;99.90;;;;;;5098377;28;20047;-67
2023/11/21 02:58:57;;;;;;;38.63;17.02;;;9.40;99.90;;;;;;5078653;28;20041;-67
2023/11/21 03:01:27;;;;;;;40.67;16.98;;;9.40;99.90;;;;;;5066839;28;20515;-67
2023/11/21 03:03:53;;;;;;;46.88;18.83;;;9.50;99.90;;;;;;5098271;27;20071;-66
2023/11/21 03:06:19;;;;;;;39.80;18.38;;;9.50;99.90;;;;;;5064862;28;20040;-67
2023/11/21 03:08:45;;;;;;;39.85;17.58;;;9.50;99.90;;;;;;5067953;28;20114;-67
2023/11/21 03:11:10;;;;;;;44.38;18.10;;;9.40;99.90;;;;;;5068577;28;20036;-67
2023/11/21 03:13:36;;;;;;;42.05;19.30;;;9.50;99.90;;;;;;5066731;28;20056;-67
2023/11/21 03:16:01;;;;;;;49.03;19.05;;;9.40;99.90;;;;;;5065135;28;20414;-67
2023/11/21 03:18:29;;;;;;;44.80;19.95;;;9.50;99.90;;;;;;5066562;28;20028;-67
2023/11/21 03:20:54;;;;;;;49.83;19.08;;;9.40;99.90;;;;;;5065555;28;20052;-67
2023/11/21 03:23:20;;;;;;;47.70;18.83;;;9.50;99.90;;;;;;5068516;28;20063;-67
2023/11/21 03:25:46;;;;;;;45.50;18.33;;;9.50;99.90;;;;;;5068815;28;20464;-67
2023/11/21 03:28:11;;;;;;;49.47;18.92;;;9.50;99.90;;;;;;5068272;28;20074;-67
2023/11/21 03:30:37;;;;;;;49.10;20.98;;;9.50;99.90;;;;;;5063591;28;20032;-67
2023/11/21 03:33:02;;;;;;;58.58;19.67;;;9.50;99.90;;;;;;5069294;28;20380;-67
2023/11/21 03:35:28;;;;;;;54.53;20.75;;;9.50;99.90;;;;;;5068830;28;20127;-67
2023/11/21 03:37:54;;;;;;;53.53;21.73;;;9.50;99.90;;;;;;5068438;28;20073;-67
2023/11/21 03:40:21;;;;;;;52.90;21.67;;;9.50;99.90;;;;;;5065891;28;20048;-67
2023/11/21 03:42:47;;;;;;;53.97;20.60;;;9.40;99.90;;;;;;5067057;28;20055;-67
2023/11/21 03:45:14;;;;;;;49.05;19.45;;;9.40;99.90;;;;;;5097298;28;20500;-67
2023/11/21 03:47:41;;;;;;;55.33;20.98;;;9.50;99.90;;;;;;5061285;28;20044;-67
2023/11/21 03:50:09;;;;;;;43.15;17.90;;;9.50;99.90;;;;;;5067429;28;20500;-66
2023/11/21 03:52:35;;;;;;;59.40;20.10;;;9.40;99.90;;;;;;5095436;28;20120;-67
2023/11/21 03:55:01;;;;;;;51.17;20.98;;;9.50;99.90;;;;;;5081249;28;20136;-67
2023/11/21 03:57:27;;;;;;;55.15;19.48;;;9.40;99.90;;;;;;5069410;28;20035;-67
2023/11/21 03:59:53;;;;;;;58.28;19.30;;;9.50;99.90;;;;;;5065075;28;20131;-67
2023/11/21 04:02:20;;;;;;;48.90;18.25;;;9.40;99.90;;;;;;5070142;28;20127;-67
2023/11/21 04:04:45;;;;;;;44.58;18.90;;;9.50;99.90;;;;;;5065213;28;20044;-67
2023/11/21 04:07:13;;;;;;;48.03;19.67;;;9.50;99.90;;;;;;5068436;28;20032;-67
2023/11/21 04:09:41;;;;;;;54.17;20.55;;;9.50;99.90;;;;;;5063631;28;20178;-67
2023/11/21 04:12:08;;;;;;;52.53;20.88;;;9.50;99.90;;;;;;5066604;28;20044;-67
2023/11/21 04:14:34;;;;;;;57.83;21.95;;;9.50;99.90;;;;;;5068013;28;20540;-67
2023/11/21 04:16:59;;;;;;;54.55;20.77;;;9.40;99.90;;;;;;5063981;28;20032;-67
2023/11/21 04:19:25;;;;;;;59.08;22.60;;;9.50;99.90;;;;;;5067933;28;20024;-67
2023/11/21 04:21:51;;;;;;;54.83;21.08;;;9.50;99.90;;;;;;5063723;28;20036;-67
2023/11/21 04:24:16;;;;;;;52.70;21.90;;;9.50;99.90;;;;;;5067106;28;20048;-67
2023/11/21 04:26:43;;;;;;;60.55;22.45;;;9.40;99.90;;;;;;5063270;28;20556;-67
2023/11/21 04:29:09;;;;;;;62.53;20.42;;;9.40;99.90;;;;;;5066543;28;20586;-67
2023/11/21 04:31:34;;;;;;;59.28;22.88;;;9.40;99.90;;;;;;5062212;28;20040;-67
2023/11/21 04:34:00;;;;;;;62.95;22.35;;;9.40;99.90;;;;;;5068150;28;20024;-67
2023/11/21 04:36:26;;;;;;;59.58;21.23;;;9.40;99.90;;;;;;5067555;28;20044;-67
2023/11/21 04:38:51;;;;;;;57.03;21.70;;;9.50;99.90;;;;;;5066899;28;20935;-67
2023/11/21 04:41:17;;;;;;;47.25;20.75;;;9.40;99.90;;;;;;5065845;28;20032;-67
2023/11/21 04:43:43;;;;;;;51.15;21.45;;;9.40;99.90;;;;;;5068883;28;20060;-67
2023/11/21 04:46:09;;;;;;;59.75;22.48;;;9.40;99.90;;;;;;5098850;28;20436;-67
2023/11/21 04:48:34;;;;;;;54.05;22.08;;;9.50;99.90;;;;;;5065249;28;20475;-67
2023/11/21 04:51:00;;;;;;;60.42;22.73;;;9.40;99.90;;;;;;5067296;28;20090;-67
2023/11/21 04:53:26;;;;;;;56.03;22.63;;;9.40;99.90;;;;;;5066394;28;20040;-67
2023/11/21 04:55:51;;;;;;;57.70;22.33;;;9.40;99.90;;;;;;5067581;28;20086;-67
2023/11/21 04:58:17;;;;;;;53.50;21.65;;;9.40;99.90;;;;;;5064478;28;20041;-67
2023/11/21 05:00:43;;;;;;;50.80;22.55;;;9.40;99.90;;;;;;5063547;28;20507;-67
2023/11/21 05:03:09;;;;;;;59.60;21.75;;;9.40;99.90;;;;;;5061627;28;20045;-67
2023/11/21 05:05:35;;;;;;;49.15;21.55;;;9.40;99.90;;;;;;5062868;28;20489;-67
2023/11/21 05:08:01;;;;;;;48.00;21.45;;;9.40;99.90;;;;;;5063863;28;20036;-67
2023/11/21 05:10:27;;;;;;;50.53;21.15;;;9.40;99.90;;;;;;5065529;28;20032;-67
2023/11/21 05:12:52;;;;;;;39.95;21.73;;;9.30;99.90;;;;;;5065157;28;20479;-67
2023/11/21 05:15:18;;;;;;;44.95;20.35;;;9.30;99.90;;;;;;5067383;28;20415;-67
2023/11/21 05:17:45;;;;;;;43.95;20.05;;;9.40;99.90;;;;;;5067214;28;20055;-67
2023/11/21 05:20:13;;;;;;;40.28;18.65;;;9.40;99.90;;;;;;5096528;28;20391;-67
2023/11/21 05:22:40;;;;;;;43.45;20.63;;;9.40;99.90;;;;;;5064315;28;20044;-67
2023/11/21 05:25:08;;;;;;;43.50;19.17;;;9.40;99.90;;;;;;5096928;28;20139;-67
2023/11/21 05:27:34;;;;;;;37.67;19.90;;;9.40;99.90;;;;;;5067581;28;20483;-67
2023/11/21 05:30:11;;;;;;;40.00;18.70;;;9.40;99.90;;;;;;5069286;28;20044;-67
2023/11/21 05:32:37;;;;;;;41.55;19.75;;;9.40;99.90;;;;;;5065465;28;20044;-67
2023/11/21 05:35:03;;;;;;;38.85;20.25;;;9.50;99.90;;;;;;5064690;28;20059;-67
2023/11/21 05:37:29;;;;;;;40.42;19.90;;;9.50;99.90;;;;;;5065813;28;20045;-67
2023/11/21 05:39:56;;;;;;;44.47;21.02;;;9.50;99.90;;;;;;5065499;28;20093;-67
2023/11/21 05:42:23;;;;;;;38.13;20.17;;;9.50;99.90;;;;;;5070172;28;20479;-67
2023/11/21 05:44:48;;;;;;;36.05;19.17;;;9.50;99.90;;;;;;5069545;28;20511;-67
2023/11/21 05:47:15;;;;;;;34.95;19.02;;;9.50;99.90;;;;;;5099818;28;20024;-67
2023/11/21 05:49:40;;;;;;;40.78;19.02;;;9.50;99.90;;;;;;5069029;28;20029;-67
2023/11/21 05:52:06;;;;;;;44.38;19.15;;;9.50;99.90;;;;;;5099427;28;20044;-67
2023/11/21 05:54:32;;;;;;;36.63;19.60;;;9.50;99.90;;;;;;5071190;28;20039;-67
2023/11/21 05:56:59;;;;;;;46.17;20.17;;;9.50;99.90;;;;;;5069000;28;20044;-67
2023/11/21 05:59:24;;;;;;;40.03;21.25;;;9.60;99.90;;;;;;5069975;28;20646;-67
2023/11/21 06:01:50;;;;;;;34.72;19.27;;;9.60;99.90;;;;;;5064114;28;20040;-67
2023/11/21 06:04:15;;;;;;;41.08;20.13;;;9.50;99.90;;;;;;5069436;28;20036;-67
2023/11/21 06:06:41;;;;;;;43.53;20.23;;;9.50;99.90;;;;;;5066901;28;20048;-67
2023/11/21 06:09:09;;;;;;;45.03;20.52;;;9.50;99.90;;;;;;5100476;28;20041;-67
2023/11/21 06:11:35;;;;;;;44.17;20.38;;;9.50;99.90;;;;;;5064473;28;20093;-67
2023/11/21 06:14:01;;;;;;;44.72;20.40;;;9.50;99.90;;;;;;5065544;28;20627;-67
2023/11/21 06:16:27;;;;;;;37.03;19.42;;;9.70;99.90;;;;;;5064694;28;20043;-67
2023/11/21 06:18:53;;;;;;;31.17;17.13;;;9.50;99.90;;;;;;5061591;28;20051;-67
2023/11/21 06:21:20;;;;;;;31.45;16.65;;;9.50;99.90;;;;;;5068271;28;20411;-67
2023/11/21 06:23:45;;;;;;;27.42;16.00;;;9.60;99.90;;;;;;5064950;28;20048;-67
2023/11/21 06:26:12;;;;;;;28.13;15.95;;;9.60;99.90;;;;;;5066820;28;20768;-67
2023/11/21 06:28:38;;;;;;;27.88;15.57;;;9.60;99.90;;;;;;5068554;28;20039;-67
2023/11/21 06:31:05;;;;;;;30.17;16.25;;;9.50;99.90;;;;;;5065538;28;20135;-67
2023/11/21 06:33:34;;;;;;;27.13;14.70;;;9.60;99.90;;;;;;5063910;28;20690;-67
2023/11/21 06:36:02;;;;;;;36.80;16.13;;;9.50;99.90;;;;;;5069260;28;20506;-67
2023/11/21 06:38:29;;;;;;;35.33;15.85;;;9.50;99.90;;;;;;5065351;28;20057;-67
2023/11/21 06:40:56;;;;;;;38.95;16.67;;;9.60;99.90;;;;;;5095348;28;20060;-67
2023/11/21 06:43:22;;;;;;;37.08;17.70;;;9.50;99.90;;;;;;5068820;28;20079;-67
2023/11/21 06:45:48;;;;;;;39.13;17.55;;;9.80;99.90;;;;;;5063418;28;20124;-67
2023/11/21 06:48:14;;;;;;;36.78;16.08;;;9.40;99.90;;;;;;5069312;28;20470;-67
2023/11/21 06:50:41;;;;;;;30.23;15.35;;;9.50;99.90;;;;;;5066786;28;20110;-67
2023/11/21 06:53:08;;;;;;;32.42;15.77;;;9.50;99.90;;;;;;5065895;28;20049;-67
2023/11/21 06:55:34;;;;;;;35.88;16.52;;;9.50;99.90;;;;;;5062548;28;20106;-67
2023/11/21 06:58:00;;;;;;;38.80;15.07;;;9.50;99.90;;;;;;5069627;28;20040;-67
2023/11/21 07:00:27;;;;;;;33.67;15.35;;;9.40;99.90;;;;;;5097493;28;20049;-67
2023/11/21 07:02:53;;;;;;;32.45;14.85;;;9.40;99.90;;;;;;5066001;28;20040;-67
2023/11/21 07:05:21;;;;;;;34.30;14.82;;;9.40;99.90;;;;;;5066018;28;20101;-67
2023/11/21 07:07:48;;;;;;;31.75;14.00;;;9.50;99.90;;;;;;5071573;28;20049;-67
2023/11/21 07:10:14;;;;;;;26.20;13.90;;;9.40;99.90;;;;;;5066668;28;20525;-67
2023/11/21 07:12:40;;;;;;;28.42;14.50;;;9.40;99.90;;;;;;5068607;28;20070;-66
2023/11/21 07:15:09;;;;;;;27.55;13.38;;;9.40;99.90;;;;;;5069888;28;20048;-66
2023/11/21 07:17:35;;;;;;;23.90;12.23;;;9.40;99.90;;;;;;5070049;28;20040;-66
2023/11/21 07:20:02;;;;;;;24.83;11.75;;;9.40;99.90;;;;;;5066297;28;20479;-66
2023/11/21 07:22:27;;;;;;;25.48;12.23;;;9.30;99.90;;;;;;5068922;28;20487;-66
2023/11/21 07:24:53;;;;;;;21.50;10.85;;;9.40;99.90;;;;;;5065754;28;20095;-66
2023/11/21 07:27:19;;;;;;;19.38;11.48;;;9.40;99.90;;;;;;5066233;28;20044;-66
2023/11/21 07:29:45;;;;;;;22.05;12.23;;;9.40;99.90;;;;;;5065669;28;20032;-66
2023/11/21 07:32:11;;;;;;;21.73;12.02;;;9.40;99.90;;;;;;5099100;28;20039;-66
2023/11/21 07:34:37;;;;;;;21.25;11.40;;;9.30;99.90;;;;;;5067363;28;20040;-66
2023/11/21 07:37:03;;;;;;;26.30;11.80;;;9.30;99.90;;;;;;5060468;28;20073;-66
2023/11/21 07:39:32;;;;;;;22.08;12.32;;;9.40;99.90;;;;;;5061627;28;20028;-66
2023/11/21 07:41:57;;;;;;;21.08;12.35;;;9.40;99.90;;;;;;5061751;28;20475;-66
2023/11/21 07:44:23;;;;;;;27.05;13.10;;;9.40;99.90;;;;;;5056689;28;20082;-66
2023/11/21 07:46:52;;;;;;;25.23;14.25;;;9.40;99.90;;;;;;5060123;28;20120;-66
2023/11/21 07:49:20;;;;;;;23.45;13.57;;;9.40;99.90;;;;;;5055710;28;20048;-66
2023/11/21 07:51:46;;;;;;;27.15;13.65;;;9.40;99.90;;;;;;5062742;28;20102;-66
2023/11/21 07:54:11;;;;;;;28.95;15.20;;;9.40;99.90;;;;;;5058665;28;20036;-66
2023/11/21 07:56:37;;;;;;;26.75;13.40;;;9.40;99.90;;;;;;5061932;28;20131;-66
2023/11/21 07:59:04;;;;;;;23.23;14.10;;;9.60;99.90;;;;;;5064854;28;20048;-66
2023/11/21 08:01:30;;;;;;;25.10;13.40;;;9.40;99.90;;;;;;5058580;28;20040;-66
2023/11/21 08:03:58;;;;;;;20.15;12.38;;;9.40;99.90;;;;;;5064205;28;20097;-67
2023/11/21 08:06:25;;;;;;;23.50;13.07;;;9.40;99.90;;;;;;5090301;28;20051;-66
2023/11/21 08:08:51;;;;;;;22.08;13.35;;;9.50;99.90;;;;;;5051922;28;20056;-66
2023/11/21 08:11:17;;;;;;;20.55;11.57;;;9.50;99.90;;;;;;5057237;28;20044;-66
2023/11/21 08:13:42;;;;;;;24.52;12.98;;;9.40;99.90;;;;;;5061187;28;20036;-66
2023/11/21 08:16:08;;;;;;;23.65;12.77;;;9.50;99.90;;;;;;5060715;28;20154;-66
2023/11/21 08:18:34;;;;;;;23.02;12.43;;;9.50;99.90;;;;;;5048322;28;20051;-66
2023/11/21 08:21:00;;;;;;;22.40;12.63;;;9.50;99.90;;;;;;5057878;28;20052;-66
2023/11/21 08:23:26;;;;;;;21.70;11.25;;;9.60;99.90;;;;;;5067755;28;20067;-66
2023/11/21 08:25:55;;;;;;;22.77;11.20;;;9.50;99.90;;;;;;5063081;28;20079;-66
2023/11/21 08:28:25;;;;;;;24.13;13.07;;;9.50;99.90;;;;;;5068433;28;20743;-66
2023/11/21 08:30:52;;;;;;;28.70;14.93;;;9.50;99.90;;;;;;5069903;28;20399;-66
2023/11/21 08:33:18;;;;;;;32.55;16.05;;;9.40;99.90;;;;;;5049384;28;20082;-66
2023/11/21 08:35:45;;;;;;;31.30;15.20;;;9.40;99.90;;;;;;5066390;28;20044;-66
2023/11/21 08:38:12;;;;;;;34.08;14.52;;;9.40;99.90;;;;;;5069718;28;20047;-66
2023/11/21 08:40:38;;;;;;;31.15;15.00;;;9.40;99.90;;;;;;5067547;28;20036;-66
2023/11/21 08:43:07;;;;;;;30.77;15.45;;;9.40;99.90;;;;;;5065834;28;20072;-66
2023/11/21 08:45:34;;;;;;;35.85;17.02;;;9.30;99.90;;;;;;5064450;28;20055;-66
2023/11/21 08:48:03;;;;;;;29.02;15.15;;;9.30;99.90;;;;;;5052030;28;20044;-66
2023/11/21 08:50:29;;;;;;;26.55;14.27;;;9.40;99.90;;;;;;5067771;28;20039;-66
2023/11/21 08:52:55;;;;;;;28.52;14.65;;;9.30;99.90;;;;;;5048211;28;20044;-66
2023/11/21 08:55:21;;;;;;;27.13;14.77;;;9.20;99.90;;;;;;5067353;28;20482;-66
2023/11/21 08:57:47;;;;;;;28.52;15.45;;;9.30;99.90;;;;;;5066085;28;20056;-66
2023/11/21 09:00:15;;;;;;;34.30;18.10;;;9.20;99.90;;;;;;5065029;28;20044;-66
2023/11/21 09:02:41;;;;;;;31.58;16.85;;;9.20;99.90;;;;;;5095308;28;20600;-66
2023/11/21 09:05:09;;;;;;;27.75;14.63;;;9.20;99.90;;;;;;5066697;28;20047;-66
2023/11/21 09:07:35;;;;;;;33.88;16.73;;;9.20;99.90;;;;;;5065706;28;20039;-66
2023/11/21 09:10:03;;;;;;;38.25;20.80;;;9.20;99.90;;;;;;5063134;28;20040;-66
2023/11/21 09:12:28;;;;;;;36.28;20.55;;;9.10;99.90;;;;;;5066139;28;20078;-66
2023/11/21 09:14:54;;;;;;;36.40;20.50;;;9.20;99.90;;;;;;5066492;28;20568;-66
2023/11/21 09:17:20;;;;;;;35.75;20.90;;;9.10;99.90;;;;;;5064055;28;20484;-66
2023/11/21 09:19:51;;;;;;;32.00;20.30;;;9.10;99.90;;;;;;5062563;28;20118;-66
2023/11/21 09:22:17;;;;;;;34.47;21.52;;;9.00;99.90;;;;;;5064963;28;20041;-66
2023/11/21 09:24:43;;;;;;;33.33;21.40;;;9.00;99.90;;;;;;5066204;28;20028;-66
2023/11/21 09:27:09;;;;;;;34.17;22.17;;;9.00;99.90;;;;;;5066371;28;20040;-66
2023/11/21 09:29:38;;;;;;;30.88;21.65;;;9.00;99.90;;;;;;5064412;28;20102;-66
2023/11/21 09:32:06;;;;;;;32.13;21.25;;;9.00;99.90;;;;;;5063081;28;20068;-66
2023/11/21 09:34:38;;;;;;;32.75;20.58;;;9.00;99.90;;;;;;5064496;28;20419;-66
2023/11/21 09:37:06;;;;;;;33.00;20.90;;;9.00;99.90;;;;;;5066040;28;20040;-66
2023/11/21 09:39:34;;;;;;;29.80;21.58;;;9.00;99.90;;;;;;5062652;28;20656;-66
2023/11/21 09:42:12;;;;;;;32.20;21.85;;;9.00;99.90;;;;;;5064499;28;20041;-66
2023/11/21 09:45:07;;;;;;;29.50;21.23;;;9.00;99.90;;;;;;5064006;28;20036;-66
2023/11/21 09:47:37;;;;;;;26.70;20.70;;;9.00;99.90;;;;;;5061965;28;20052;-66
2023/11/21 09:50:04;;;;;;;30.95;21.83;;;8.90;99.90;;;;;;5062330;28;20047;-66
2023/11/21 09:52:32;;;;;;;29.88;21.20;;;9.00;99.90;;;;;;5075751;28;20059;-66
2023/11/21 09:54:58;;;;;;;26.20;21.13;;;9.00;99.90;;;;;;5063011;28;20052;-66
2023/11/21 09:57:25;;;;;;;27.80;20.02;;;9.00;99.90;;;;;;5064670;28;20101;-66
2023/11/21 09:59:56;;;;;;;23.10;19.63;;;9.00;99.90;;;;;;5077198;28;20044;-66
2023/11/21 10:02:35;;;;;;;26.55;20.17;;;8.90;99.90;;;;;;5063667;28;20067;-66
2023/11/21 10:05:03;;;;;;;21.35;18.30;;;8.90;99.90;;;;;;5064489;28;20094;-66
2023/11/21 10:07:31;;;;;;;23.77;19.20;;;8.90;99.90;;;;;;5059719;28;20991;-66
2023/11/21 10:09:58;;;;;;;22.33;19.55;;;8.90;99.90;;;;;;5080033;28;20213;-66
2023/11/21 10:12:23;;;;;;;24.42;18.15;;;8.90;99.90;;;;;;5067474;28;20052;-66
2023/11/21 10:14:52;;;;;;;23.08;18.00;;;8.90;99.90;;;;;;5066769;28;20134;-66
2023/11/21 10:17:19;;;;;;;21.90;18.65;;;8.90;99.90;;;;;;5066884;28;20043;-66
2023/11/21 10:19:47;;;;;;;19.42;17.33;;;8.90;99.90;;;;;;5047550;28;20041;-66
2023/11/21 10:22:15;;;;;;;18.45;15.60;;;8.90;99.90;;;;;;5063765;28;20053;-66
2023/11/21 10:24:42;;;;;;;17.33;15.52;;;9.00;99.90;;;;;;5063267;28;20037;-66
2023/11/21 10:27:08;;;;;;;16.83;14.82;;;8.90;99.90;;;;;;5062516;28;20055;-66
2023/11/21 10:29:35;;;;;;;17.15;14.82;;;8.90;99.90;;;;;;5070334;28;20048;-66
2023/11/21 10:32:05;;;;;;;16.30;14.32;;;8.90;99.90;;;;;;5072363;28;20040;-66
2023/11/21 10:34:31;;;;;;;17.23;15.35;;;9.00;99.90;;;;;;5071989;28;20068;-66
2023/11/21 10:36:58;;;;;;;17.83;14.98;;;9.00;99.90;;;;;;5066655;28;20111;-67
2023/11/21 10:39:27;;;;;;;16.58;14.82;;;9.00;99.90;;;;;;5067075;28;20047;-66
2023/11/21 10:41:54;;;;;;;16.50;13.23;;;9.00;99.90;;;;;;5066642;28;20369;-66
2023/11/21 10:44:22;;;;;;;16.63;13.57;;;9.00;99.90;;;;;;5067507;28;20131;-66
2023/11/21 10:46:55;;;;;;;16.40;14.50;;;9.00;99.90;;;;;;5066821;28;20048;-66
2023/11/21 10:49:27;;;;;;;16.33;14.73;;;8.90;99.90;;;;;;5064637;28;20041;-66
2023/11/21 10:51:56;;;;;;;17.17;13.88;;;9.00;99.90;;;;;;5066309;28;20037;-66
2023/11/21 10:54:25;;;;;;;14.70;13.30;;;8.90;99.90;;;;;;5066778;28;20035;-66
2023/11/21 10:56:56;;;;;;;14.02;12.18;;;9.00;99.90;;;;;;5095701;28;20075;-66
2023/11/21 10:59:25;;;;;;;14.18;12.57;;;9.00;99.90;;;;;;5064778;28;20039;-66
2023/11/21 11:01:52;;;;;;;13.50;12.10;;;8.90;99.90;;;;;;5066042;28;20040;-66
2023/11/21 11:04:24;;;;;;;13.50;12.05;;;8.90;99.90;;;;;;5066966;28;20385;-66
2023/11/21 11:07:13;;;;;;;12.30;10.82;;;8.90;99.90;;;;;;5066254;28;20049;-66
2023/11/21 11:09:38;;;;;;;11.90;10.70;;;8.90;99.90;;;;;;5066021;28;20052;-66
2023/11/21 11:12:06;;;;;;;11.27;10.10;;;8.90;99.90;;;;;;5067693;28;20032;-66
2023/11/21 11:14:32;;;;;;;9.82;8.90;;;8.90;99.90;;;;;;5066808;28;20473;-66
2023/11/21 11:17:00;;;;;;;10.00;9.10;;;8.80;99.90;;;;;;5064178;28;20511;-66
2023/11/21 11:19:25;;;;;;;9.18;8.25;;;8.90;99.90;;;;;;5067247;28;20522;-66
2023/11/21 11:21:57;;;;;;;8.55;7.75;;;8.90;99.90;;;;;;5065498;28;20047;-66
2023/11/21 11:24:48;;;;;;;8.52;7.07;;;8.90;99.90;;;;;;5068278;28;20094;-66
2023/11/21 11:27:39;;;;;;;9.77;7.75;;;9.00;99.90;;;;;;5063324;28;20044;-66
2023/11/21 11:30:19;;;;;;;7.43;6.72;;;9.00;99.90;;;;;;5064364;28;20041;-66
2023/11/21 11:32:56;;;;;;;7.10;6.10;;;9.00;99.90;;;;;;5064013;28;20084;-66
2023/11/21 11:35:38;;;;;;;6.10;5.38;;;8.90;99.90;;;;;;5066549;28;20036;-66
2023/11/21 11:38:04;;;;;;;6.22;5.68;;;8.90;99.90;;;;;;5064457;28;20045;-66
2023/11/21 11:40:45;;;;;;;6.60;5.97;;;8.90;99.90;;;;;;5063148;28;20079;-66
2023/11/21 11:43:11;;;;;;;7.20;6.47;;;8.80;99.90;;;;;;5063120;28;20051;-66
2023/11/21 11:45:44;;;;;;;7.43;6.45;;;8.90;99.90;;;;;;5047115;28;20036;-66
2023/11/21 11:48:14;;;;;;;10.10;5.75;;;9.00;99.90;;;;;;5041832;28;20122;-66
2023/11/21 11:51:03;;;;;;;6.30;5.70;;;9.30;99.90;;;;;;5067178;28;20032;-66
2023/11/21 11:53:36;;;;;;;6.20;5.57;;;9.00;99.90;;;;;;5061963;28;20072;-66
2023/11/21 11:56:31;;;;;;;6.60;6.00;;;8.90;99.90;;;;;;5067044;28;20132;-66
2023/11/21 11:58:58;;;;;;;6.40;5.80;;;8.90;99.90;;;;;;5067690;28;20052;-66
2023/11/21 12:01:26;;;;;;;6.25;5.65;;;8.90;99.90;;;;;;5067942;28;20068;-66
2023/11/21 12:04:10;;;;;;;6.97;5.85;;;8.90;99.90;;;;;;5064425;28;20135;-66
2023/11/21 12:06:36;;;;;;;7.30;6.45;;;8.90;99.90;;;;;;5080744;28;20044;-66
2023/11/21 12:09:05;;;;;;;6.40;5.78;;;9.00;99.90;;;;;;5062966;28;20036;-66
2023/11/21 12:11:32;;;;;;;7.45;6.70;;;8.90;99.90;;;;;;5067197;28;20133;-66
2023/11/21 12:13:58;;;;;;;6.57;5.90;;;8.90;99.90;;;;;;5088493;28;21832;-66
2023/11/21 12:16:27;;;;;;;7.45;6.75;;;8.90;99.90;;;;;;5062116;28;20040;-66
2023/11/21 12:18:53;;;;;;;6.85;5.47;;;8.90;99.90;;;;;;5061745;28;20127;-66
2023/11/21 12:21:20;;;;;;;6.25;5.50;;;8.90;99.90;;;;;;5062590;28;20127;-66
2023/11/21 12:23:47;;;;;;;6.00;4.93;;;8.90;99.90;;;;;;5061280;28;20045;-66
2023/11/21 12:26:13;;;;;;;5.65;5.05;;;8.80;99.90;;;;;;5095210;27;20033;-66
2023/11/21 12:28:39;;;;;;;7.55;5.38;;;8.90;99.90;;;;;;5060814;28;20106;-66
2023/11/21 12:31:06;;;;;;;6.82;6.13;;;9.00;99.90;;;;;;5064894;28;20463;-66
2023/11/21 12:33:33;;;;;;;6.88;5.72;;;9.10;99.90;;;;;;5069321;28;20040;-66
2023/11/21 12:35:59;;;;;;;6.97;6.25;;;9.10;99.90;;;;;;5065401;28;20185;-66
2023/11/21 12:38:24;;;;;;;8.10;5.40;;;9.10;99.90;;;;;;5067386;28;20044;-66